Time;durP1;ratioP1;P1;durP2;ratioP2;P2;SDS_P1;SDS_P2;PMS_P1;PMS_P2;Temp;Humidity;BMP_temperature;BMP_pressure;BME280_temperature;BME280_humidity;BME280_pressure;Samples;Min_cycle;Max_cycle;Signal;HPM_P1;HPM_P2
2019/07/12 00:00:24;;;;;;;5.6;3.7;;;;;;;18.01;82.41895;999.8173;;;;
2019/07/12 00:02:50;;;;;;;5.9;3.6;;;;;;;17.72;83.18945;999.7787;;;;
2019/07/12 00:05:15;;;;;;;4.9;3.4;;;;;;;17.61;84.68164;999.7712;;;;
2019/07/12 00:07:39;;;;;;;4.9;3.8;;;;;;;17.51;84.16016;999.7156;;;;
2019/07/12 00:10:04;;;;;;;4;3.6;;;;;;;17.43;84.88867;999.6278;;;;
2019/07/12 00:12:29;;;;;;;5.3;3.8;;;;;;;17.45;85.17188;999.5773;;;;
2019/07/12 00:14:55;;;;;;;5.4;3.8;;;;;;;17.04;86.83594;999.5837;;;;
2019/07/12 00:17:20;;;;;;;5.4;3.7;;;;;;;17;86.96875;999.5419;;;;
2019/07/12 00:19:45;;;;;;;6.3;3.7;;;;;;;17.07;86.66699;999.5583;;;;
2019/07/12 00:22:10;;;;;;;6.7;4.4;;;;;;;16.94;87.37402;999.549;;;;
2019/07/12 00:24:35;;;;;;;7.7;3.8;;;;;;;16.87;87.89453;999.4714;;;;
2019/07/12 00:27:02;;;;;;;6;4.1;;;;;;;16.84;87.90039;999.4431;;;;
2019/07/12 00:29:25;;;;;;;4.9;4.2;;;;;;;16.82;87.90625;999.3983;;;;
2019/07/12 00:31:51;;;;;;;6.7;4.7;;;;;;;16.81;88.69629;999.381;;;;
2019/07/12 00:34:15;;;;;;;4.9;4.4;;;;;;;16.7;89.55469;999.4019;;;;
2019/07/12 00:36:44;;;;;;;5.5;4.1;;;;;;;16.87;88.9043;999.3918;;;;
2019/07/12 00:39:07;;;;;;;5;4.3;;;;;;;16.71;89.26855;999.45;;;;
2019/07/12 00:41:32;;;;;;;5.1;4.4;;;;;;;16.62;89.45898;999.4628;;;;
2019/07/12 00:43:55;;;;;;;7.8;4.5;;;;;;;16.66;89.53613;999.4249;;;;
2019/07/12 00:46:23;;;;;;;5.2;4.6;;;;;;;16.71;89.70801;999.3736;;;;
2019/07/12 00:48:47;;;;;;;6.5;4;;;;;;;16.94;88.82617;999.3903;;;;
2019/07/12 00:51:13;;;;;;;4.9;4.4;;;;;;;16.96;88.97168;999.4423;;;;
2019/07/12 00:53:42;;;;;;;6.7;4.5;;;;;;;17.09;88.39063;999.443;;;;
2019/07/12 00:56:10;;;;;;;6.6;4.2;;;;;;;17.06;88.4668;999.4929;;;;
2019/07/12 00:58:35;;;;;;;6;4.3;;;;;;;17;88.4209;999.4639;;;;
2019/07/12 01:01:00;;;;;;;6.9;4.6;;;;;;;16.87;88.69531;999.454;;;;
2019/07/12 01:03:20;;;;;;;5;4.5;;;;;;;16.77;88.81641;999.4789;;;;
2019/07/12 01:05:49;;;;;;;5.9;4.6;;;;;;;16.76;89.52148;999.5284;;;;
2019/07/12 01:08:15;;;;;;;6.1;4.6;;;;;;;16.7;89.61523;999.5364;;;;
2019/07/12 01:10:41;;;;;;;5.9;4.5;;;;;;;16.86;88.82129;999.5215;;;;
2019/07/12 01:13:05;;;;;;;6.1;4.3;;;;;;;16.92;86.01172;999.527;;;;
2019/07/12 01:15:30;;;;;;;6.1;3.9;;;;;;;17.23;83.22461;999.4938;;;;
2019/07/12 01:17:59;;;;;;;6.7;4.2;;;;;;;17.31;82.93652;999.5114;;;;
2019/07/12 01:20:24;;;;;;;5;3.9;;;;;;;17.28;83.0918;999.4663;;;;
2019/07/12 01:22:47;;;;;;;5.5;4;;;;;;;17.41;82.69922;999.4929;;;;
2019/07/12 01:25:12;;;;;;;8;4.1;;;;;;;17.56;81.91406;999.4546;;;;
2019/07/12 01:27:37;;;;;;;6;4.1;;;;;;;17.45;82.74219;999.4133;;;;
2019/07/12 01:30:04;;;;;;;5;3.9;;;;;;;17.63;81.00781;999.4039;;;;
2019/07/12 01:32:28;;;;;;;5.5;3.6;;;;;;;17.52;81.5332;999.4272;;;;
2019/07/12 01:34:52;;;;;;;5.3;4.3;;;;;;;17.44;82.30859;999.4107;;;;
2019/07/12 01:37:20;;;;;;;5.9;4.2;;;;;;;17.55;81.39844;999.4247;;;;
2019/07/12 01:39:43;;;;;;;6;4;;;;;;;17.43;82.36523;999.39;;;;
2019/07/12 01:42:09;;;;;;;5.8;4.3;;;;;;;17.42;81.78418;999.3416;;;;
2019/07/12 01:44:33;;;;;;;5;3.8;;;;;;;17.45;82.1377;999.4064;;;;
2019/07/12 01:46:58;;;;;;;5;4.1;;;;;;;17.43;82.2627;999.3828;;;;
2019/07/12 01:49:24;;;;;;;5;4.1;;;;;;;17.37;82.34375;999.413;;;;
2019/07/12 01:51:49;;;;;;;4.6;3.9;;;;;;;17.51;81.3916;999.4019;;;;
2019/07/12 01:54:15;;;;;;;6.7;4.5;;;;;;;17.48;81.96875;999.4202;;;;
2019/07/12 01:56:40;;;;;;;5.8;4.4;;;;;;;17.61;81.31738;999.4534;;;;
2019/07/12 01:59:10;;;;;;;5.9;4;;;;;;;17.47;81.92969;999.3975;;;;
2019/07/12 02:01:34;;;;;;;5;3.8;;;;;;;17.31;82.37793;999.4208;;;;
2019/07/12 02:03:55;;;;;;;7.6;4.5;;;;;;;17.26;82.7998;999.3775;;;;
2019/07/12 02:06:20;;;;;;;5.9;3.9;;;;;;;17.38;82.46191;999.4314;;;;
2019/07/12 02:08:46;;;;;;;6.7;4.6;;;;;;;17.21;83.25293;999.4101;;;;
2019/07/12 02:11:13;;;;;;;7.1;4.1;;;;;;;17.27;83.01074;999.4303;;;;
2019/07/12 02:13:41;;;;;;;5.6;4.3;;;;;;;17.14;83.17285;999.4224;;;;
2019/07/12 02:16:05;;;;;;;6.3;4.3;;;;;;;17.42;82.33008;999.4001;;;;
2019/07/12 02:18:28;;;;;;;7.2;4.3;;;;;;;17.2;83.18359;999.438;;;;
2019/07/12 02:20:57;;;;;;;5.2;4.5;;;;;;;17.09;83.6377;999.3917;;;;
2019/07/12 02:23:18;;;;;;;7.7;4.2;;;;;;;17.11;83.57324;999.3716;;;;
2019/07/12 02:25:43;;;;;;;5.9;4.4;;;;;;;17.08;84.13574;999.3516;;;;
2019/07/12 02:28:08;;;;;;;6.3;4.4;;;;;;;17.19;83.19336;999.3517;;;;
2019/07/12 02:30:34;;;;;;;4.8;4.2;;;;;;;16.98;84.02539;999.2726;;;;
2019/07/12 02:32:59;;;;;;;6;4.5;;;;;;;16.94;84.31836;999.283;;;;
2019/07/12 02:35:27;;;;;;;5.8;4.6;;;;;;;17.03;83.9873;999.2645;;;;
2019/07/12 02:37:51;;;;;;;5.7;4.8;;;;;;;17.14;83.41699;999.2874;;;;
2019/07/12 02:40:14;;;;;;;6.6;4.5;;;;;;;17.02;84.22949;999.2358;;;;
2019/07/12 02:42:42;;;;;;;7.3;4.6;;;;;;;17.02;83.43945;999.257;;;;
2019/07/12 02:45:06;;;;;;;7.6;4.8;;;;;;;16.89;84.27539;999.2343;;;;
2019/07/12 02:47:30;;;;;;;5;4.5;;;;;;;17.01;83.94922;999.2391;;;;
2019/07/12 02:49:59;;;;;;;6;4.6;;;;;;;17.1;83.53613;999.155;;;;
2019/07/12 02:52:24;;;;;;;7.4;4.4;;;;;;;17.13;82.64648;999.1133;;;;
2019/07/12 02:54:49;;;;;;;6.9;4.5;;;;;;;16.97;83.09375;999.1358;;;;
2019/07/12 02:57:15;;;;;;;5.4;4.6;;;;;;;17.08;83.04492;999.0759;;;;
2019/07/12 02:59:42;;;;;;;7.6;5;;;;;;;17.02;83.25391;999.0728;;;;
2019/07/12 03:02:11;;;;;;;5.6;4.8;;;;;;;16.85;84.31348;999.1359;;;;
2019/07/12 03:04:36;;;;;;;7.3;4.4;;;;;;;16.99;83.92285;999.1436;;;;
2019/07/12 03:07:02;;;;;;;5.9;4.5;;;;;;;17.09;82.76563;999.1848;;;;
2019/07/12 03:09:26;;;;;;;5.5;4.5;;;;;;;17.09;83.05664;999.1421;;;;
2019/07/12 03:11:51;;;;;;;6.1;4.4;;;;;;;17.08;82.47559;999.1289;;;;
2019/07/12 03:14:19;;;;;;;5.8;4.3;;;;;;;16.94;83.29688;999.1583;;;;
2019/07/12 03:16:44;;;;;;;6.9;4.6;;;;;;;17.01;82.91504;999.1763;;;;
2019/07/12 03:19:08;;;;;;;6.5;4.4;;;;;;;16.94;83.72656;999.0974;;;;
2019/07/12 03:21:37;;;;;;;6.4;4.6;;;;;;;16.9;83.58008;999.0533;;;;
2019/07/12 03:23:59;;;;;;;5;4.5;;;;;;;16.98;83.0127;999.0408;;;;
2019/07/12 03:26:22;;;;;;;4.9;4.2;;;;;;;17.14;81.93945;999.0109;;;;
2019/07/12 03:28:49;;;;;;;6;4.5;;;;;;;16.99;82.28418;999.05;;;;
2019/07/12 03:31:12;;;;;;;5.8;4.3;;;;;;;16.93;83.12012;999.0231;;;;
2019/07/12 03:33:37;;;;;;;6.4;4.8;;;;;;;17.1;82.20996;999.0249;;;;
2019/07/12 03:36:02;;;;;;;6.6;4.6;;;;;;;17.01;82.65918;999.0618;;;;
2019/07/12 03:38:27;;;;;;;5.3;4.5;;;;;;;17.01;83.83105;999.0544;;;;
2019/07/12 03:40:52;;;;;;;5.2;4.7;;;;;;;16.89;84.34277;999.0731;;;;
2019/07/12 03:43:17;;;;;;;6.4;4.7;;;;;;;16.94;84.24902;999.0467;;;;
2019/07/12 03:45:42;;;;;;;5.3;4.8;;;;;;;17.02;83.75293;999.0234;;;;
2019/07/12 03:48:07;;;;;;;6.8;4.2;;;;;;;17.03;83.8252;998.9603;;;;
2019/07/12 03:50:33;;;;;;;7.1;4.8;;;;;;;17.04;84.01367;998.9816;;;;
2019/07/12 03:52:58;;;;;;;8;5.3;;;;;;;16.96;84.68457;998.9587;;;;
2019/07/12 03:55:23;;;;;;;5.6;4.5;;;;;;;17.02;82.46387;998.9509;;;;
2019/07/12 03:57:48;;;;;;;6.7;4.3;;;;;;;17.14;83.51953;998.9835;;;;
2019/07/12 04:02:28;;;;;;;5.3;4.5;;;;;;;17.17;83.48047;999.0698;;;;
2019/07/12 04:04:53;;;;;;;7;4.7;;;;;;;17.37;82.91309;999.0236;;;;
2019/07/12 04:07:18;;;;;;;6.5;4.3;;;;;;;17.46;82.48828;999.0165;;;;
2019/07/12 04:09:43;;;;;;;5.9;4.1;;;;;;;17.18;82.5752;998.9526;;;;
2019/07/12 04:12:08;;;;;;;8.6;4.4;;;;;;;16.96;83.5791;998.9291;;;;
2019/07/12 04:14:33;;;;;;;6.2;4.6;;;;;;;16.83;84.55371;998.9908;;;;
2019/07/12 04:16:58;;;;;;;7;5.2;;;;;;;16.73;84.87109;999.0302;;;;
2019/07/12 04:19:23;;;;;;;6.6;5.3;;;;;;;16.71;84.58887;998.9967;;;;
2019/07/12 04:21:50;;;;;;;6.6;4.8;;;;;;;16.83;83.83301;999.0147;;;;
2019/07/12 04:24:15;;;;;;;5.3;4.6;;;;;;;16.85;84.05566;998.9563;;;;
2019/07/12 04:26:40;;;;;;;5.1;4.6;;;;;;;16.91;83.20996;998.9065;;;;
2019/07/12 04:29:05;;;;;;;7.3;4.8;;;;;;;17.02;82.99805;998.8889;;;;
2019/07/12 04:31:30;;;;;;;4.9;4.4;;;;;;;17.05;82.64453;998.8781;;;;
2019/07/12 04:33:55;;;;;;;5.1;4.5;;;;;;;17.19;82.42383;999.0154;;;;
2019/07/12 04:36:21;;;;;;;5.8;4.3;;;;;;;17.6;82.24609;999.0969;;;;
2019/07/12 04:38:47;;;;;;;5.7;4.5;;;;;;;17.73;82.29297;999.1;;;;
2019/07/12 04:41:10;;;;;;;5.6;4.4;;;;;;;17.59;82.80273;999.03;;;;
2019/07/12 04:43:35;;;;;;;4.9;4.2;;;;;;;17.79;82.28125;998.9969;;;;
2019/07/12 04:46:00;;;;;;;8.1;4.3;;;;;;;18.16;81.11621;998.9739;;;;
2019/07/12 04:48:25;;;;;;;5.6;4.2;;;;;;;18.31;79.58105;998.9324;;;;
2019/07/12 04:50:51;;;;;;;5.7;4.2;;;;;;;17.76;80.2168;998.9545;;;;
2019/07/12 04:53:16;;;;;;;6.5;4.2;;;;;;;17.74;81.2373;999.0798;;;;
2019/07/12 04:55:41;;;;;;;6.2;4;;;;;;;17.92;80.59375;999.197;;;;
2019/07/12 04:58:06;;;;;;;5.1;4;;;;;;;17.72;82.12988;999.2648;;;;
2019/07/12 05:00:31;;;;;;;5.2;4.2;;;;;;;17.58;83.18555;999.3242;;;;
2019/07/12 05:02:57;;;;;;;5.4;4;;;;;;;17.68;82.48242;999.3269;;;;
2019/07/12 05:05:22;;;;;;;5.6;4.4;;;;;;;17.52;82.54492;999.3656;;;;
2019/07/12 05:07:47;;;;;;;5;4.5;;;;;;;17.43;83.01855;999.3314;;;;
2019/07/12 05:10:12;;;;;;;6;4.2;;;;;;;17.52;82.62793;999.2294;;;;
2019/07/12 05:12:37;;;;;;;4.7;3.8;;;;;;;17.82;81.36719;999.1685;;;;
2019/07/12 05:15:02;;;;;;;7.6;4.2;;;;;;;17.7;80.87988;999.2183;;;;
2019/07/12 05:17:28;;;;;;;5.4;4;;;;;;;17.68;80.80859;999.2767;;;;
2019/07/12 05:19:52;;;;;;;5.6;4.5;;;;;;;17.56;81.71582;999.2369;;;;
2019/07/12 05:22:17;;;;;;;5.9;4.1;;;;;;;17.98;79.59375;999.2297;;;;
2019/07/12 05:24:43;;;;;;;5.8;4.4;;;;;;;18.06;79.58301;999.1479;;;;
2019/07/12 05:27:08;;;;;;;5;4.2;;;;;;;18.08;79.07422;999.0898;;;;
2019/07/12 05:29:33;;;;;;;6.3;4.5;;;;;;;18.3;78.47363;999.0276;;;;
2019/07/12 05:31:58;;;;;;;5.7;4.5;;;;;;;18.33;77.56934;998.9955;;;;
2019/07/12 05:34:24;;;;;;;7.7;5;;;;;;;18.42;77.79688;998.9838;;;;
2019/07/12 05:36:49;;;;;;;5.3;4.5;;;;;;;18.86;75.65723;998.9931;;;;
2019/07/12 05:39:14;;;;;;;4.9;4.1;;;;;;;19.26;74.13574;999.0381;;;;
2019/07/12 05:41:39;;;;;;;6;4.2;;;;;;;19.75;71.2959;999.0769;;;;
2019/07/12 05:44:04;;;;;;;4.7;4;;;;;;;20.58;66.93164;999.1077;;;;
2019/07/12 05:46:29;;;;;;;5.9;4.2;;;;;;;20.23;69.24414;999.162;;;;
2019/07/12 05:48:54;;;;;;;7.2;4;;;;;;;20.47;67.30176;999.1236;;;;
2019/07/12 05:51:19;;;;;;;6.4;4;;;;;;;21.17;65.3916;999.0363;;;;
2019/07/12 05:53:44;;;;;;;5.4;4.2;;;;;;;20.91;66.18555;999.1542;;;;
2019/07/12 05:56:09;;;;;;;6;3.7;;;;;;;20.96;65.72266;999.2697;;;;
2019/07/12 05:58:34;;;;;;;8;4.7;;;;;;;20.35;67.92773;999.2858;;;;
2019/07/12 06:01:00;;;;;;;6.6;4.6;;;;;;;20.68;67.06543;999.3897;;;;
2019/07/12 06:03:25;;;;;;;8.3;4.7;;;;;;;20.4;68.2998;999.508;;;;
2019/07/12 06:05:50;;;;;;;8.3;4.7;;;;;;;20.16;68.92773;999.5261;;;;
2019/07/12 06:08:15;;;;;;;10;5.2;;;;;;;19.88;70.34766;999.6016;;;;
2019/07/12 06:10:41;;;;;;;8;4.7;;;;;;;20.21;70.20996;999.6864;;;;
2019/07/12 06:13:06;;;;;;;6.5;4.8;;;;;;;20.07;70.42383;999.5633;;;;
2019/07/12 06:15:31;;;;;;;11.1;5;;;;;;;19.99;71.50977;999.4691;;;;
2019/07/12 06:17:56;;;;;;;7;5.3;;;;;;;20.19;70.15039;999.4211;;;;
2019/07/12 06:20:21;;;;;;;6.5;5.2;;;;;;;20.02;70.48535;999.4133;;;;
2019/07/12 06:22:47;;;;;;;5.8;4.8;;;;;;;19.77;71.83691;999.4144;;;;
2019/07/12 06:25:13;;;;;;;8.4;5.5;;;;;;;19.56;72.53906;999.5634;;;;
2019/07/12 06:27:38;;;;;;;6.1;4.9;;;;;;;19.47;73.625;999.5137;;;;
2019/07/12 06:30:03;;;;;;;7.8;5.1;;;;;;;19.71;72.61133;999.3867;;;;
2019/07/12 06:32:28;;;;;;;7.4;5.3;;;;;;;19.34;72.7373;999.3616;;;;
2019/07/12 06:34:53;;;;;;;8.2;5.5;;;;;;;19.02;76.15137;999.4794;;;;
2019/07/12 06:37:18;;;;;;;9.3;5.4;;;;;;;18.96;76.08301;999.4677;;;;
2019/07/12 06:39:44;;;;;;;8.2;5.2;;;;;;;18.8;77.31348;999.4797;;;;
2019/07/12 06:42:09;;;;;;;8;5;;;;;;;18.71;78.02246;999.6264;;;;
2019/07/12 06:44:34;;;;;;;9.8;5.6;;;;;;;18.84;78.55859;999.4483;;;;
2019/07/12 06:46:59;;;;;;;8.9;5.9;;;;;;;18.48;79.18164;999.3679;;;;
2019/07/12 06:49:24;;;;;;;7.7;5.5;;;;;;;18.35;80.17285;999.4531;;;;
2019/07/12 06:51:49;;;;;;;8.4;5.6;;;;;;;18.21;80.71777;999.5399;;;;
2019/07/12 06:54:14;;;;;;;7.3;5.4;;;;;;;18.22;80.38184;999.5475;;;;
2019/07/12 06:56:39;;;;;;;9.4;6.3;;;;;;;18.03;81.36035;999.5556;;;;
2019/07/12 06:59:04;;;;;;;10.6;5.7;;;;;;;17.85;82.93359;999.7822;;;;
2019/07/12 07:01:29;;;;;;;10.4;5.8;;;;;;;17.99;81.9707;999.972;;;;
2019/07/12 07:03:54;;;;;;;8.9;6.5;;;;;;;18.04;83.19238;1000.158;;;;
2019/07/12 07:06:20;;;;;;;9.5;6.4;;;;;;;17.79;85.20313;1000.213;;;;
2019/07/12 07:08:45;;;;;;;11.4;6.8;;;;;;;17.77;86.73633;1000.146;;;;
2019/07/12 07:11:10;;;;;;;9.6;6.5;;;;;;;18.03;86.55664;1000.182;;;;
2019/07/12 07:13:35;;;;;;;8.9;6.6;;;;;;;17.95;86.26953;1000.503;;;;
2019/07/12 07:16:00;;;;;;;9.6;7.3;;;;;;;17.98;87.14941;1000.483;;;;
2019/07/12 07:18:25;;;;;;;12.7;8.2;;;;;;;17.98;87.81348;1000.334;;;;
2019/07/12 07:20:50;;;;;;;7.6;6.8;;;;;;;17.98;87.02148;1000.1;;;;
2019/07/12 07:23:15;;;;;;;9.5;6.7;;;;;;;17.99;85.3584;999.9955;;;;
2019/07/12 07:25:41;;;;;;;9.2;6.9;;;;;;;17.88;85.05957;999.8886;;;;
2019/07/12 07:28:06;;;;;;;10.6;7.2;;;;;;;17.6;86.9248;999.8269;;;;
2019/07/12 07:30:31;;;;;;;8.8;7;;;;;;;17.69;87.11523;999.8984;;;;
2019/07/12 07:32:57;;;;;;;10.3;6.8;;;;;;;17.99;85.98828;999.923;;;;
2019/07/12 07:35:22;;;;;;;9.8;6.9;;;;;;;18.12;85.43066;999.87;;;;
2019/07/12 07:37:47;;;;;;;12.2;6.4;;;;;;;18.3;84.02051;999.8725;;;;
2019/07/12 07:40:12;;;;;;;10;6.3;;;;;;;18.61;81.78223;999.7728;;;;
2019/07/12 07:42:37;;;;;;;8.2;5.6;;;;;;;18.51;81.0752;1000.026;;;;
2019/07/12 07:45:02;;;;;;;7.8;6.2;;;;;;;18.28;82.37207;1000.223;;;;
2019/07/12 07:47:27;;;;;;;8.8;5.6;;;;;;;18.6;81.15039;1000.318;;;;
2019/07/12 07:49:52;;;;;;;7.7;5.9;;;;;;;18.57;80.39941;1000.287;;;;
2019/07/12 07:52:18;;;;;;;9.7;6.2;;;;;;;18.61;81.91016;1000.13;;;;
2019/07/12 07:54:43;;;;;;;10.2;6.1;;;;;;;18.49;82.05176;1000.065;;;;
2019/07/12 07:57:08;;;;;;;9.8;5.8;;;;;;;18.9;81.02051;999.9978;;;;
2019/07/12 07:59:33;;;;;;;8.9;5.5;;;;;;;19.26;79.32129;1000.071;;;;
2019/07/12 08:01:58;;;;;;;7.6;4.9;;;;;;;19.85;76.5166;1000.149;;;;
2019/07/12 08:04:23;;;;;;;8.1;4.7;;;;;;;21.91;69.40234;1000.177;;;;
2019/07/12 08:06:48;;;;;;;8.6;4.1;;;;;;;24.6;59.66895;1000.196;;;;
2019/07/12 08:09:13;;;;;;;7;4.5;;;;;;;26.05;53.58887;1000.143;;;;
2019/07/12 08:11:38;;;;;;;7.1;4;;;;;;;27.75;49.45898;1000.074;;;;
2019/07/12 08:14:04;;;;;;;6.4;3.7;;;;;;;28.01;45.66504;1000.027;;;;
2019/07/12 08:16:28;;;;;;;5.4;3.5;;;;;;;27.45;48.62891;999.9291;;;;
2019/07/12 08:18:54;;;;;;;6.6;3.6;;;;;;;25.61;52.6123;999.8777;;;;
2019/07/12 08:21:19;;;;;;;6.6;3.4;;;;;;;24.7;56.3125;999.8878;;;;
2019/07/12 08:23:44;;;;;;;5;3.9;;;;;;;24.28;56.41211;999.8078;;;;
2019/07/12 08:26:09;;;;;;;7.8;3.9;;;;;;;23.5;58.97949;999.7723;;;;
2019/07/12 08:28:34;;;;;;;6.9;3.9;;;;;;;22.99;61.51367;999.618;;;;
2019/07/12 08:30:59;;;;;;;7.3;4.2;;;;;;;22.46;63.05273;999.584;;;;
2019/07/12 08:33:24;;;;;;;7.7;4.5;;;;;;;21.81;66.89551;999.5422;;;;
2019/07/12 08:35:49;;;;;;;5.6;4.4;;;;;;;21.65;68.26855;999.4941;;;;
2019/07/12 08:38:14;;;;;;;5.8;4.4;;;;;;;21.88;67.02246;999.4902;;;;
2019/07/12 08:40:39;;;;;;;6.8;3.6;;;;;;;22.04;64.56836;999.4717;;;;
2019/07/12 08:43:05;;;;;;;7;3.6;;;;;;;22.34;65.24707;999.5057;;;;
2019/07/12 08:45:30;;;;;;;5.6;3.1;;;;;;;23.14;62.11133;999.492;;;;
2019/07/12 08:47:55;;;;;;;6;3.2;;;;;;;23.11;61.625;999.5428;;;;
2019/07/12 08:50:20;;;;;;;5;3.1;;;;;;;22.76;63.01172;999.6042;;;;
2019/07/12 08:52:45;;;;;;;4.2;3.2;;;;;;;22.84;64.06055;999.6239;;;;
2019/07/12 08:55:10;;;;;;;9;4.5;;;;;;;23.47;61.62891;999.6065;;;;
2019/07/12 08:57:35;;;;;;;4;3.4;;;;;;;23.25;62.5752;999.5399;;;;
2019/07/12 09:00:00;;;;;;;4.8;2.8;;;;;;;23.1;61.88281;999.5279;;;;
2019/07/12 09:02:25;;;;;;;6.1;3.3;;;;;;;23.66;61.60645;999.5795;;;;
2019/07/12 09:04:50;;;;;;;4.9;3;;;;;;;25.75;57.20215;999.6418;;;;
2019/07/12 09:07:16;;;;;;;3.7;2.7;;;;;;;27.98;49.87695;999.6431;;;;
2019/07/12 09:09:41;;;;;;;6.6;2.5;;;;;;;28.06;49.52832;999.6164;;;;
2019/07/12 09:12:06;;;;;;;5.1;2.8;;;;;;;27.95;48.14746;999.5231;;;;
2019/07/12 09:14:31;;;;;;;4.8;2.7;;;;;;;27.13;49.24805;999.4832;;;;
2019/07/12 09:16:56;;;;;;;3.2;2.8;;;;;;;25.46;53.62402;999.4822;;;;
2019/07/12 09:19:21;;;;;;;5.2;3.2;;;;;;;24.61;57.22266;999.5356;;;;
2019/07/12 09:21:47;;;;;;;3.9;2.9;;;;;;;25.03;57.42969;999.4885;;;;
2019/07/12 09:24:12;;;;;;;4.8;3;;;;;;;25.34;56.73535;999.4755;;;;
2019/07/12 09:26:37;;;;;;;4.6;3.2;;;;;;;25;57.03613;999.4086;;;;
2019/07/12 09:29:05;;;;;;;4.1;3.6;;;;;;;24.39;58.1748;999.3705;;;;
2019/07/12 09:31:30;;;;;;;4.9;3.2;;;;;;;24.07;60.55371;999.3527;;;;
2019/07/12 09:33:55;;;;;;;5;3.4;;;;;;;24.17;59.68164;999.4032;;;;
2019/07/12 09:36:20;;;;;;;4.4;3.6;;;;;;;23.82;62.82031;999.4511;;;;
2019/07/12 09:38:45;;;;;;;5.4;3.1;;;;;;;24.49;60.33789;999.4914;;;;
2019/07/12 09:41:11;;;;;;;12.4;9.6;;;;;;;24.7;59.7998;999.5078;;;;
2019/07/12 09:43:36;;;;;;;5;3.2;;;;;;;24.18;59.8125;999.4833;;;;
2019/07/12 09:46:01;;;;;;;6.9;2.7;;;;;;;24.24;57.04395;999.4449;;;;
2019/07/12 09:48:26;;;;;;;3.8;2.7;;;;;;;23.9;57.30762;999.3786;;;;
2019/07/12 09:50:51;;;;;;;3;2.3;;;;;;;23.95;58.22363;999.3535;;;;
2019/07/12 09:53:16;;;;;;;3.8;2.5;;;;;;;23.57;57.96191;999.3203;;;;
2019/07/12 09:55:41;;;;;;;4.1;2.6;;;;;;;23.87;58.63867;999.3691;;;;
2019/07/12 09:58:06;;;;;;;3.4;2.4;;;;;;;23.49;60.62793;999.4816;;;;
2019/07/12 10:00:31;;;;;;;3.3;2.6;;;;;;;24.52;57.38867;999.5936;;;;
2019/07/12 10:02:56;;;;;;;4.1;2.6;;;;;;;24.05;58.75586;999.6487;;;;
2019/07/12 10:05:21;;;;;;;3.1;2.6;;;;;;;23.64;60.12988;999.8085;;;;
2019/07/12 10:07:46;;;;;;;3.2;2;;;;;;;23.94;57.06641;999.9122;;;;
2019/07/12 10:10:12;;;;;;;4.3;2.9;;;;;;;22.89;61.38281;999.9777;;;;
2019/07/12 10:12:37;;;;;;;4.8;2.7;;;;;;;22.74;63.20996;999.9199;;;;
2019/07/12 10:15:02;;;;;;;3.7;2.7;;;;;;;22.63;62.63086;999.6906;;;;
2019/07/12 10:17:27;;;;;;;5.1;2.9;;;;;;;21.98;63.75879;999.4919;;;;
2019/07/12 10:19:52;;;;;;;4.2;2.9;;;;;;;21.8;66.57715;999.4625;;;;
2019/07/12 10:22:17;;;;;;;4.5;2.9;;;;;;;22.01;66.12598;999.5045;;;;
2019/07/12 10:24:42;;;;;;;3.8;3.2;;;;;;;21.58;68.49219;999.481;;;;
2019/07/12 10:27:07;;;;;;;6.7;3.3;;;;;;;21.64;68.20801;999.4844;;;;
2019/07/12 10:29:32;;;;;;;4.1;3.2;;;;;;;21.1;72.15918;999.4597;;;;
2019/07/12 10:31:57;;;;;;;5.3;3.3;;;;;;;20.96;73.84863;999.4241;;;;
2019/07/12 10:34:22;;;;;;;4.4;3.6;;;;;;;21.43;72.34277;999.3173;;;;
2019/07/12 10:36:47;;;;;;;5.8;3.5;;;;;;;21.88;72.90918;999.3858;;;;
2019/07/12 10:39:12;;;;;;;5.3;3.5;;;;;;;22.13;71.70313;999.4936;;;;
2019/07/12 10:41:38;;;;;;;6.6;3.4;;;;;;;22.09;72.67285;999.4897;;;;
2019/07/12 10:44:03;;;;;;;5.4;3.6;;;;;;;22.31;72.99121;999.4369;;;;
2019/07/12 10:46:28;;;;;;;5.4;3.9;;;;;;;22.07;74.06934;999.3909;;;;
2019/07/12 10:48:53;;;;;;;4.8;3.4;;;;;;;22.37;67.25098;999.3381;;;;
2019/07/12 10:51:18;;;;;;;5;3.3;;;;;;;22.05;67.57715;999.3217;;;;
2019/07/12 10:53:43;;;;;;;4.6;3.3;;;;;;;22.02;69.37109;999.2919;;;;
2019/07/12 10:56:08;;;;;;;4.2;3.3;;;;;;;23.22;66.05859;999.2191;;;;
2019/07/12 10:58:33;;;;;;;3.8;2.7;;;;;;;23.4;63.29102;999.1464;;;;
2019/07/12 11:00:58;;;;;;;3.7;3.1;;;;;;;22.96;65.23047;999.0457;;;;
2019/07/12 11:03:23;;;;;;;4.8;2.6;;;;;;;22.94;65.74707;999.0198;;;;
2019/07/12 11:05:48;;;;;;;3;2.7;;;;;;;22.65;65.60938;999.1169;;;;
2019/07/12 11:08:13;;;;;;;3.8;3;;;;;;;22.33;69.69043;999.2604;;;;
2019/07/12 11:10:39;;;;;;;4.4;3.8;;;;;;;21.82;73.90918;999.3367;;;;
2019/07/12 11:13:04;;;;;;;4.7;3.5;;;;;;;21.94;72.01563;999.4167;;;;
2019/07/12 11:15:29;;;;;;;4.9;4;;;;;;;21.49;74.05371;999.4995;;;;
2019/07/12 11:17:54;;;;;;;5.9;4;;;;;;;21.76;72.97266;999.6909;;;;
2019/07/12 11:20:20;;;;;;;5.4;3.9;;;;;;;21.82;71.97168;999.8011;;;;
2019/07/12 11:22:45;;;;;;;5.7;3.9;;;;;;;21.37;73.97559;999.8101;;;;
2019/07/12 11:25:10;;;;;;;6.4;4.4;;;;;;;20.88;76.82324;999.8742;;;;
2019/07/12 11:27:35;;;;;;;6.9;4.8;;;;;;;20.81;78.58203;999.9803;;;;
2019/07/12 11:30:00;;;;;;;13.3;6.6;;;;;;;20.5;81.06836;999.8794;;;;
2019/07/12 11:32:26;;;;;;;11.3;7.5;;;;;;;20.24;81.3252;999.9334;;;;
2019/07/12 11:34:51;;;;;;;14.5;8;;;;;;;19.88;83.92578;999.495;;;;
2019/07/12 11:37:16;;;;;;;10;6.8;;;;;;;19.89;80.82813;999.2942;;;;
2019/07/12 11:39:41;;;;;;;16.6;12;;;;;;;20.22;80.37402;999.3074;;;;
2019/07/12 11:42:06;;;;;;;8.6;6.7;;;;;;;20.4;81.6709;999.1608;;;;
2019/07/12 11:44:31;;;;;;;9.8;7;;;;;;;20.94;80.86621;999.2358;;;;
2019/07/12 11:46:56;;;;;;;10.7;7.5;;;;;;;21.46;79.36621;999.1986;;;;
2019/07/12 11:49:21;;;;;;;11.2;6.6;;;;;;;21.98;75.76758;999.1628;;;;
2019/07/12 11:51:46;;;;;;;9.4;6.1;;;;;;;22.05;76.0625;999.1868;;;;
2019/07/12 11:54:12;;;;;;;8.3;6;;;;;;;21.85;76.18066;999.1467;;;;
2019/07/12 11:56:37;;;;;;;9.5;6.4;;;;;;;21.81;77.00879;999.1616;;;;
2019/07/12 11:59:02;;;;;;;10.6;6.6;;;;;;;22.01;76.16211;999.1409;;;;
2019/07/12 12:01:27;;;;;;;7.7;6;;;;;;;22.1;74.49707;999.1227;;;;
2019/07/12 12:03:52;;;;;;;6.2;5.3;;;;;;;22.42;73.58691;999.0736;;;;
2019/07/12 12:06:17;;;;;;;7.8;5.6;;;;;;;22.58;74.99023;999.0568;;;;
2019/07/12 12:08:42;;;;;;;7.7;5.8;;;;;;;23.04;74.20801;999.0609;;;;
2019/07/12 12:11:08;;;;;;;6.7;5.1;;;;;;;23.14;72.2666;999.045;;;;
2019/07/12 12:13:33;;;;;;;7.7;5.2;;;;;;;23.07;71.49121;999.0995;;;;
2019/07/12 12:15:58;;;;;;;7.3;4.9;;;;;;;23.03;72.15527;999.0483;;;;
2019/07/12 12:18:23;;;;;;;7.1;4.6;;;;;;;22.99;69.81738;999.0055;;;;
2019/07/12 12:20:48;;;;;;;5.5;4.3;;;;;;;23.6;69.32422;998.9883;;;;
2019/07/12 12:23:13;;;;;;;10.3;7.4;;;;;;;23.6;70.51367;998.967;;;;
2019/07/12 12:25:39;;;;;;;5;3.6;;;;;;;22.99;70.22949;998.9503;;;;
2019/07/12 12:28:04;;;;;;;6.9;3.8;;;;;;;23.16;68.64063;998.9097;;;;
2019/07/12 12:30:29;;;;;;;3.4;3.1;;;;;;;23.12;68.77832;998.8691;;;;
2019/07/12 12:32:54;;;;;;;6.2;3.3;;;;;;;22.92;71.39551;998.8842;;;;
2019/07/12 12:35:19;;;;;;;4.4;2.9;;;;;;;23.33;68.91602;998.8485;;;;
2019/07/12 12:37:44;;;;;;;5.5;3.1;;;;;;;23.59;65.79492;998.7726;;;;
2019/07/12 12:40:10;;;;;;;4.6;2.8;;;;;;;23.74;66.28906;998.7553;;;;
2019/07/12 12:42:35;;;;;;;6;2.9;;;;;;;24.3;63.91699;998.8122;;;;
2019/07/12 12:45:00;;;;;;;4.4;3;;;;;;;24.17;63.2002;998.7527;;;;
2019/07/12 12:47:25;;;;;;;3.7;2.8;;;;;;;24.85;63.85254;998.7573;;;;
2019/07/12 12:49:50;;;;;;;7;3.9;;;;;;;24.67;63.73145;998.7434;;;;
2019/07/12 12:52:15;;;;;;;6.2;4.3;;;;;;;24.91;62.94922;998.7233;;;;
2019/07/12 12:54:40;;;;;;;5.5;3.1;;;;;;;24.93;62.30371;998.7261;;;;
2019/07/12 12:57:05;;;;;;;3.5;2.9;;;;;;;24.88;61.3252;998.7866;;;;
2019/07/12 12:59:31;;;;;;;3.6;2.8;;;;;;;24.82;64.72363;998.782;;;;
2019/07/12 13:01:56;;;;;;;3.8;2.5;;;;;;;24.5;62.23145;998.7664;;;;
2019/07/12 13:04:21;;;;;;;3.2;2.8;;;;;;;24.42;60.06836;998.7955;;;;
2019/07/12 13:06:46;;;;;;;3.7;2.6;;;;;;;24.17;61.4043;998.7256;;;;
2019/07/12 13:09:11;;;;;;;3.4;2.5;;;;;;;24.06;61.2832;998.6545;;;;
2019/07/12 13:11:36;;;;;;;3.2;2.5;;;;;;;23.99;62.34766;998.5248;;;;
2019/07/12 13:14:01;;;;;;;3.6;2.8;;;;;;;23.94;62.80176;998.5458;;;;
2019/07/12 13:16:26;;;;;;;3.2;2.9;;;;;;;24.04;62.5791;998.548;;;;
2019/07/12 13:18:51;;;;;;;4.1;2.8;;;;;;;24.21;62.40234;998.5811;;;;
2019/07/12 13:21:16;;;;;;;4;2.9;;;;;;;24.2;63.52441;998.6319;;;;
2019/07/12 13:23:42;;;;;;;3.5;3;;;;;;;23.7;63.81836;998.4522;;;;
2019/07/12 13:26:07;;;;;;;4.3;3.1;;;;;;;23.62;66.67285;998.4222;;;;
2019/07/12 13:28:32;;;;;;;3.8;2.9;;;;;;;23.53;64.70215;998.4338;;;;
2019/07/12 13:30:57;;;;;;;4.2;2.6;;;;;;;23.58;63.6709;998.4285;;;;
2019/07/12 13:33:22;;;;;;;6.4;3;;;;;;;23.47;63.31445;998.4288;;;;
2019/07/12 13:35:47;;;;;;;4.8;2.8;;;;;;;23.37;63.55859;998.3879;;;;
2019/07/12 13:38:16;;;;;;;4;3;;;;;;;23.33;63.9541;998.3588;;;;
2019/07/12 13:40:41;;;;;;;5.9;3.3;;;;;;;23.36;64.62988;998.3427;;;;
2019/07/12 13:43:06;;;;;;;2.9;2.6;;;;;;;23.48;63.20801;998.29;;;;
2019/07/12 13:45:31;;;;;;;5;3;;;;;;;23.52;63.33105;998.1191;;;;
2019/07/12 13:47:57;;;;;;;4.1;2.8;;;;;;;23.44;63.08496;998.163;;;;
2019/07/12 13:50:21;;;;;;;9.3;6.1;;;;;;;23.58;63.31641;998.2523;;;;
2019/07/12 13:52:46;;;;;;;4.2;3.1;;;;;;;23.29;67.34375;998.2952;;;;
2019/07/12 13:55:11;;;;;;;5.9;3.5;;;;;;;22.79;70.2334;998.2051;;;;
2019/07/12 13:57:37;;;;;;;4.4;3.4;;;;;;;22.7;71.76172;998.0476;;;;
2019/07/12 14:00:02;;;;;;;4.4;3.5;;;;;;;22.64;72.20996;998.0092;;;;
2019/07/12 14:02:27;;;;;;;4;3.2;;;;;;;22.83;70.7207;998.0145;;;;
2019/07/12 14:04:52;;;;;;;4.8;3.1;;;;;;;23.13;67.68262;998.0372;;;;
2019/07/12 14:07:17;;;;;;;3.7;3.1;;;;;;;23.22;68.00293;997.9698;;;;
2019/07/12 14:09:42;;;;;;;6.1;3.2;;;;;;;23.07;67.93262;997.9508;;;;
2019/07/12 14:12:07;;;;;;;6;3.1;;;;;;;23.18;67.9502;997.8943;;;;
2019/07/12 14:14:32;;;;;;;4.9;3.7;;;;;;;23.3;68.21582;997.9056;;;;
2019/07/12 14:16:57;;;;;;;4;3.2;;;;;;;23.43;68.93164;997.9373;;;;